createdAt,value
2022-07-26T00:02:00.259Z,77.87
2022-07-26T00:04:29.667Z,77.47
2022-07-26T00:06:57.462Z,77.84
2022-07-26T00:09:25.497Z,77.57
2022-07-26T00:11:53.328Z,77.94
2022-07-26T00:14:21.308Z,77.55
2022-07-26T00:16:49.249Z,76.96
2022-07-26T00:19:35.606Z,78.37
2022-07-26T00:22:22.325Z,77.38
2022-07-26T00:25:09.946Z,77.03
2022-07-26T00:27:38.331Z,77.00
2022-07-26T00:30:07.746Z,78.39
2022-07-26T00:32:36.392Z,77.80
2022-07-26T00:35:05.282Z,76.84
2022-07-26T00:37:34.819Z,76.48
2022-07-26T00:40:02.731Z,76.41
2022-07-26T00:42:30.515Z,76.60
2022-07-26T00:44:58.770Z,76.89
2022-07-26T00:47:27.111Z,76.56
2022-07-26T00:49:54.918Z,75.90
2022-07-26T00:52:22.865Z,76.26
2022-07-26T00:54:54.589Z,76.70
2022-07-26T00:57:23.552Z,76.86
2022-07-26T00:59:52.236Z,75.63
2022-07-26T01:02:20.622Z,76.90
2022-07-26T01:04:48.442Z,77.11
2022-07-26T01:07:16.419Z,76.61
2022-07-26T01:09:44.556Z,76.34
2022-07-26T01:12:13.719Z,76.13
2022-07-26T01:14:43.325Z,76.63
2022-07-26T01:17:11.187Z,77.32
2022-07-26T01:19:39.335Z,78.56
2022-07-26T01:22:14.153Z,80.64
2022-07-26T01:24:42.509Z,82.04
2022-07-26T01:27:10.382Z,83.78
2022-07-26T01:29:38.211Z,86.21
2022-07-26T01:32:07.044Z,85.00
2022-07-26T01:34:34.875Z,86.48
2022-07-26T01:37:04.041Z,86.19
2022-07-26T01:39:33.369Z,87.49
2022-07-26T01:42:01.355Z,90.89
2022-07-26T01:44:29.154Z,90.59
2022-07-26T01:46:56.927Z,89.75
2022-07-26T01:49:24.735Z,90.03
2022-07-26T01:51:52.600Z,88.84
2022-07-26T01:54:22.430Z,87.35
2022-07-26T01:56:53.963Z,87.50
2022-07-26T01:59:22.097Z,86.71
2022-07-26T02:01:49.885Z,87.08
2022-07-26T02:04:31.675Z,86.73
2022-07-26T02:06:59.657Z,86.95
2022-07-26T02:09:27.906Z,86.06
2022-07-26T02:12:04.410Z,86.59
2022-07-26T02:14:32.489Z,84.58
2022-07-26T02:17:00.702Z,85.28
2022-07-26T02:19:29.359Z,86.36
2022-07-26T02:21:58.001Z,88.88
2022-07-26T02:24:28.635Z,88.38
2022-07-26T02:26:56.933Z,87.87
2022-07-26T02:29:46.447Z,87.29
2022-07-26T02:32:14.571Z,86.95
2022-07-26T02:34:42.424Z,86.98
2022-07-26T02:37:10.244Z,87.62
2022-07-26T02:39:38.053Z,87.40
2022-07-26T02:42:06.154Z,87.69
2022-07-26T02:44:36.646Z,87.87
2022-07-26T02:47:04.314Z,88.67
2022-07-26T02:49:32.172Z,88.94
2022-07-26T02:51:59.967Z,90.44
2022-07-26T02:54:27.912Z,89.03
2022-07-26T02:56:55.742Z,89.09
2022-07-26T02:59:23.633Z,89.18
2022-07-26T03:01:52.797Z,89.21
2022-07-26T03:04:20.887Z,88.66
2022-07-26T03:06:48.678Z,88.54
2022-07-26T03:09:16.745Z,88.40
2022-07-26T03:11:44.664Z,88.75
2022-07-26T03:14:12.475Z,90.26
2022-07-26T03:16:40.331Z,90.13
2022-07-26T03:19:09.514Z,90.17
2022-07-26T03:21:37.311Z,88.96
2022-07-26T03:24:06.124Z,88.87
2022-07-26T03:26:34.247Z,89.23
2022-07-26T03:29:02.028Z,88.46
2022-07-26T03:31:30.081Z,88.00
2022-07-26T03:34:03.002Z,88.07
2022-07-26T03:36:32.887Z,88.65
2022-07-26T03:39:00.678Z,88.90
2022-07-26T03:41:31.601Z,90.15
2022-07-26T03:43:59.453Z,89.76
2022-07-26T03:46:27.773Z,90.03
2022-07-26T03:48:56.145Z,91.79
2022-07-26T03:51:24.125Z,93.86
2022-07-26T03:53:53.340Z,95.12
2022-07-26T03:56:28.932Z,95.23
2022-07-26T03:58:57.113Z,94.13
2022-07-26T04:01:24.985Z,93.79
2022-07-26T04:03:53.183Z,92.86
2022-07-26T04:06:23.255Z,91.68
2022-07-26T04:08:51.067Z,93.63
2022-07-26T04:11:20.507Z,92.94
2022-07-26T04:13:48.397Z,94.81
2022-07-26T04:16:16.211Z,92.88
2022-07-26T04:18:44.058Z,92.58
2022-07-26T04:21:11.931Z,92.52
2022-07-26T04:23:39.693Z,94.98
2022-07-26T04:26:07.603Z,95.34
2022-07-26T04:28:36.914Z,92.03
2022-07-26T04:31:04.812Z,91.42
2022-07-26T04:33:33.050Z,91.66
2022-07-26T04:36:01.106Z,91.71
2022-07-26T04:38:28.927Z,92.08
2022-07-26T04:40:58.050Z,90.90
2022-07-26T04:43:26.675Z,92.52
2022-07-26T04:45:57.622Z,92.67
2022-07-26T04:48:26.206Z,92.25
2022-07-26T04:50:54.727Z,90.84
2022-07-26T04:53:22.593Z,90.25
2022-07-26T04:55:50.404Z,89.71
2022-07-26T04:58:19.213Z,89.27
2022-07-26T05:01:08.914Z,89.36
2022-07-26T05:03:37.507Z,89.21
2022-07-26T05:06:05.745Z,87.44
2022-07-26T05:08:33.749Z,87.63
2022-07-26T05:11:01.628Z,87.83
2022-07-26T05:13:30.330Z,87.95
2022-07-26T05:15:59.001Z,87.77
2022-07-26T05:18:27.554Z,88.97
2022-07-26T05:20:59.472Z,90.21
2022-07-26T05:23:27.821Z,91.02
2022-07-26T05:25:56.385Z,90.49
2022-07-26T05:28:24.232Z,89.89
2022-07-26T05:30:52.326Z,90.03
2022-07-26T05:33:20.654Z,90.22
2022-07-26T05:35:48.584Z,90.13
2022-07-26T05:38:17.733Z,89.86
2022-07-26T05:40:50.291Z,89.18
2022-07-26T05:43:19.017Z,90.25
2022-07-26T05:45:46.970Z,90.65
2022-07-26T05:48:14.957Z,90.32
2022-07-26T05:50:42.870Z,89.48
2022-07-26T05:53:10.645Z,89.61
2022-07-26T05:55:40.021Z,89.28
2022-07-26T05:58:07.922Z,88.33
2022-07-26T06:00:36.077Z,89.03
2022-07-26T06:03:22.036Z,88.48
2022-07-26T06:05:50.641Z,85.96
2022-07-26T06:08:19.472Z,86.52
2022-07-26T06:10:49.341Z,85.84
2022-07-26T06:13:17.739Z,84.79
2022-07-26T06:15:45.638Z,83.93
2022-07-26T06:18:13.771Z,80.98
2022-07-26T06:20:42.345Z,80.85
2022-07-26T06:23:10.673Z,81.46
2022-07-26T06:25:38.810Z,81.03
2022-07-26T06:28:10.443Z,80.46
2022-07-26T06:30:39.149Z,80.46
2022-07-26T06:33:07.737Z,78.83
2022-07-26T06:35:36.150Z,79.54
2022-07-26T06:38:04.876Z,79.41
2022-07-26T06:40:34.047Z,78.30
2022-07-26T06:43:04.542Z,74.90
2022-07-26T06:45:35.435Z,74.19
2022-07-26T06:48:03.470Z,74.38
2022-07-26T06:50:31.664Z,74.04
2022-07-26T06:53:00.002Z,73.23
2022-07-26T06:55:28.262Z,73.65
2022-07-26T06:57:56.488Z,72.29
2022-07-26T07:00:24.874Z,71.91
2022-07-26T07:02:54.620Z,71.36
2022-07-26T07:05:23.229Z,70.75
2022-07-26T07:07:51.621Z,70.01
2022-07-26T07:10:20.548Z,68.87
2022-07-26T07:12:52.042Z,68.42
2022-07-26T07:15:20.415Z,68.05
2022-07-26T07:17:49.853Z,67.39
2022-07-26T07:20:19.728Z,65.76
2022-07-26T07:22:48.009Z,65.44
2022-07-26T07:25:16.544Z,65.29
2022-07-26T07:27:45.014Z,63.63
2022-07-26T07:30:17.192Z,64.69
2022-07-26T07:32:45.986Z,63.94
2022-07-26T07:35:14.538Z,63.08
2022-07-26T07:37:53.634Z,62.67
2022-07-26T07:40:23.402Z,62.21
2022-07-26T07:45:25.796Z,62.14
2022-07-26T07:47:54.254Z,63.17
2022-07-26T07:50:22.739Z,62.30
2022-07-26T07:52:55.606Z,61.53
2022-07-26T07:55:44.050Z,61.32
2022-07-26T07:58:15.788Z,62.50
2022-07-26T08:00:48.069Z,61.82
2022-07-26T08:03:18.624Z,59.99
2022-07-26T08:05:50.656Z,60.62
2022-07-26T08:08:22.063Z,60.27
2022-07-26T08:10:53.238Z,57.16
2022-07-26T08:13:22.828Z,58.38
2022-07-26T08:15:54.099Z,57.72
2022-07-26T08:18:25.676Z,56.51
2022-07-26T08:20:55.065Z,56.38
2022-07-26T08:23:23.808Z,57.68
2022-07-26T08:25:57.327Z,58.36
2022-07-26T08:31:19.414Z,55.47
2022-07-26T08:33:47.885Z,55.72
2022-07-26T08:36:17.036Z,55.16
2022-07-26T08:38:47.560Z,54.52
2022-07-26T08:41:16.963Z,53.09
2022-07-26T08:43:51.364Z,52.55
2022-07-26T08:46:26.921Z,52.11
2022-07-26T08:48:56.370Z,53.15
2022-07-26T08:51:26.751Z,53.21
2022-07-26T08:53:56.058Z,52.45
2022-07-26T08:56:26.394Z,52.38
2022-07-26T08:58:54.858Z,50.86
2022-07-26T09:01:24.452Z,49.99
2022-07-26T09:03:52.941Z,51.40
2022-07-26T09:06:28.337Z,52.36
2022-07-26T09:09:12.660Z,54.26
2022-07-26T09:11:40.847Z,53.66
2022-07-26T09:14:09.316Z,53.30
2022-07-26T09:16:40.250Z,51.97
2022-07-26T09:19:22.761Z,51.30
2022-07-26T09:21:51.376Z,50.14
2022-07-26T09:24:31.945Z,49.35
2022-07-26T09:27:01.461Z,51.95
2022-07-26T09:29:32.565Z,53.55
2022-07-26T09:32:19.756Z,53.18
2022-07-26T09:34:53.405Z,51.71
2022-07-26T09:37:35.046Z,50.15
2022-07-26T09:40:06.416Z,49.61
2022-07-26T09:42:34.529Z,50.00
2022-07-26T09:45:03.491Z,50.12
2022-07-26T09:47:40.965Z,50.38
2022-07-26T09:50:14.838Z,52.04
2022-07-26T09:53:02.666Z,51.36
2022-07-26T09:55:42.439Z,50.77
2022-07-26T09:58:14.093Z,49.01
2022-07-26T10:00:43.576Z,48.61
2022-07-26T10:03:13.427Z,48.58
2022-07-26T10:05:42.148Z,47.08
2022-07-26T10:08:10.980Z,47.47
2022-07-26T10:10:44.775Z,49.48
2022-07-26T10:13:13.296Z,51.26
2022-07-26T10:15:44.516Z,51.73
2022-07-26T10:18:47.511Z,51.25
2022-07-26T10:21:25.375Z,50.13
2022-07-26T10:23:56.970Z,48.72
2022-07-26T10:26:43.260Z,47.95
2022-07-26T10:29:29.490Z,48.87
2022-07-26T10:32:20.712Z,49.88
2022-07-26T10:34:50.221Z,50.95
2022-07-26T10:37:27.559Z,50.03
2022-07-26T10:40:19.165Z,48.68
2022-07-26T10:42:47.342Z,48.00
2022-07-26T10:45:21.377Z,49.62
2022-07-26T10:48:12.384Z,49.37
2022-07-26T10:50:42.951Z,50.11
2022-07-26T10:53:17.801Z,50.53
2022-07-26T10:55:47.482Z,50.27
2022-07-26T10:58:15.622Z,48.43
2022-07-26T11:00:55.728Z,47.12
2022-07-26T11:03:24.075Z,46.88
2022-07-26T11:05:53.353Z,47.75
2022-07-26T11:08:21.192Z,47.24
2022-07-26T11:10:49.131Z,47.50
2022-07-26T11:13:19.295Z,46.33
2022-07-26T11:15:49.009Z,46.43
2022-07-26T11:18:23.350Z,47.19
2022-07-26T11:20:55.422Z,47.83
2022-07-26T11:23:37.442Z,46.20
2022-07-26T11:26:10.851Z,44.79
2022-07-26T11:28:59.221Z,45.38
2022-07-26T11:31:50.604Z,45.67
2022-07-26T11:34:25.167Z,45.64
2022-07-26T11:36:56.365Z,44.10
2022-07-26T11:39:26.318Z,42.79
2022-07-26T11:41:58.839Z,42.96
2022-07-26T11:44:28.884Z,44.25
2022-07-26T11:46:57.979Z,43.77
2022-07-26T11:49:52.382Z,44.42
2022-07-26T11:52:24.944Z,43.25
2022-07-26T11:54:54.537Z,43.09
2022-07-26T11:57:22.830Z,41.67
2022-07-26T11:59:51.529Z,42.06
2022-07-26T12:02:22.381Z,42.20
2022-07-26T12:04:50.417Z,42.98
2022-07-26T12:07:21.515Z,43.19
2022-07-26T12:09:51.390Z,42.53
2022-07-26T12:12:24.278Z,41.26
2022-07-26T12:14:59.775Z,40.79
2022-07-26T12:17:34.923Z,41.45
2022-07-26T12:20:13.847Z,42.13
2022-07-26T12:22:54.432Z,41.41
2022-07-26T12:25:26.922Z,41.10
2022-07-26T12:27:54.945Z,40.34
2022-07-26T12:30:23.087Z,39.42
2022-07-26T12:32:52.086Z,39.17
2022-07-26T12:35:32.106Z,39.48
2022-07-26T12:38:01.414Z,39.92
2022-07-26T12:40:30.981Z,39.46
2022-07-26T12:43:02.013Z,39.87
2022-07-26T12:45:31.653Z,38.66
2022-07-26T12:48:00.750Z,38.96
2022-07-26T12:50:31.376Z,39.11
2022-07-26T12:53:03.629Z,39.56
2022-07-26T12:55:32.049Z,40.03
2022-07-26T12:58:00.750Z,39.63
2022-07-26T13:00:30.143Z,39.70
2022-07-26T13:02:58.461Z,39.02
2022-07-26T13:05:27.048Z,40.07
2022-07-26T13:07:55.555Z,40.35
2022-07-26T13:10:34.063Z,41.31
2022-07-26T13:13:03.682Z,41.76
2022-07-26T13:15:36.114Z,42.73
2022-07-26T13:18:07.270Z,42.02
2022-07-26T13:20:37.011Z,42.48
2022-07-26T13:23:04.869Z,41.29
2022-07-26T13:25:38.279Z,42.75
2022-07-26T13:28:08.439Z,43.24
2022-07-26T13:30:38.231Z,41.79
2022-07-26T13:33:06.356Z,42.66
2022-07-26T13:35:34.142Z,41.47
2022-07-26T13:38:01.958Z,40.00
2022-07-26T13:40:31.730Z,40.38
2022-07-26T13:43:01.294Z,40.70
2022-07-26T13:45:29.756Z,41.13
2022-07-26T13:47:58.841Z,41.00
2022-07-26T13:50:27.622Z,39.94
2022-07-26T13:52:56.227Z,39.88
2022-07-26T13:55:24.594Z,40.76
2022-07-26T13:57:55.591Z,41.24
2022-07-26T14:00:28.701Z,41.15
2022-07-26T14:02:59.464Z,39.61
2022-07-26T14:05:29.322Z,39.68
2022-07-26T14:07:57.298Z,40.24
2022-07-26T14:10:25.728Z,40.28
2022-07-26T14:12:53.863Z,39.42
2022-07-26T14:15:23.303Z,39.62
2022-07-26T14:17:53.012Z,38.39
2022-07-26T14:20:21.044Z,38.11
2022-07-26T14:22:49.325Z,38.48
2022-07-26T14:25:17.464Z,38.67
2022-07-26T14:27:45.232Z,37.24
2022-07-26T14:30:14.295Z,38.45
2022-07-26T14:32:42.422Z,38.45
2022-07-26T14:35:13.579Z,38.96
2022-07-26T14:37:44.701Z,39.03
2022-07-26T14:40:15.240Z,38.88
2022-07-26T14:42:43.145Z,39.01
2022-07-26T14:45:12.247Z,38.89
2022-07-26T14:47:40.160Z,39.33
2022-07-26T14:50:09.331Z,38.96
2022-07-26T14:52:40.130Z,39.53
2022-07-26T14:55:09.432Z,39.46
2022-07-26T14:57:39.442Z,39.62
2022-07-26T15:00:10.107Z,39.56
2022-07-26T15:02:39.788Z,40.61
2022-07-26T15:05:08.286Z,40.82
2022-07-26T15:07:36.165Z,40.32
2022-07-26T15:10:07.122Z,40.88
2022-07-26T15:12:35.084Z,40.73
2022-07-26T15:15:03.055Z,41.75
2022-07-26T15:17:31.132Z,41.69
2022-07-26T15:19:59.131Z,42.98
2022-07-26T15:22:26.976Z,44.10
2022-07-26T15:24:54.833Z,45.03
2022-07-26T15:27:24.058Z,44.64
2022-07-26T15:29:51.903Z,45.28
2022-07-26T15:32:21.579Z,44.82
2022-07-26T15:34:49.554Z,44.05
2022-07-26T15:37:17.533Z,42.76
2022-07-26T15:39:45.717Z,41.83
2022-07-26T15:42:15.261Z,41.31
2022-07-26T15:44:44.501Z,41.23
2022-07-26T15:47:15.442Z,42.13
2022-07-26T15:49:58.689Z,41.53
2022-07-26T15:52:26.706Z,42.46
2022-07-26T15:54:54.441Z,41.80
2022-07-26T15:57:22.236Z,42.56
2022-07-26T15:59:51.350Z,42.87
2022-07-26T16:02:19.534Z,44.27
2022-07-26T16:04:47.387Z,44.00
2022-07-26T16:07:16.614Z,44.16
2022-07-26T16:09:44.771Z,44.31
2022-07-26T16:12:12.562Z,43.81
2022-07-26T16:14:40.367Z,43.85
2022-07-26T16:17:09.665Z,44.08
2022-07-26T16:19:37.435Z,43.66
2022-07-26T16:22:05.566Z,43.39
2022-07-26T16:24:33.939Z,43.44
2022-07-26T16:27:01.870Z,43.79
2022-07-26T16:29:29.759Z,43.08
2022-07-26T16:31:57.759Z,44.13
2022-07-26T16:34:27.427Z,44.96
2022-07-26T16:36:55.223Z,45.81
2022-07-26T16:39:22.999Z,45.51
2022-07-26T16:41:50.796Z,45.17
2022-07-26T16:44:18.622Z,44.62
2022-07-26T16:46:46.898Z,45.20
2022-07-26T16:49:15.279Z,46.04
2022-07-26T16:51:44.743Z,46.39
2022-07-26T16:54:12.532Z,46.38
2022-07-26T16:56:40.432Z,46.56
2022-07-26T16:59:10.511Z,46.41
2022-07-26T17:01:38.941Z,47.11
2022-07-26T17:04:07.085Z,47.20
2022-07-26T17:06:35.827Z,47.83
2022-07-26T17:09:05.195Z,47.84
2022-07-26T17:11:36.140Z,48.56
2022-07-26T17:14:04.032Z,48.10
2022-07-26T17:16:33.119Z,48.19
2022-07-26T17:19:01.175Z,48.15
2022-07-26T17:21:29.010Z,48.61
2022-07-26T17:23:56.821Z,48.65
2022-07-26T17:26:25.989Z,48.23
2022-07-26T17:28:53.795Z,48.58
2022-07-26T17:31:21.601Z,49.03
2022-07-26T17:33:50.489Z,49.33
2022-07-26T17:36:27.345Z,48.92
2022-07-26T17:38:57.515Z,48.57
2022-07-26T17:41:32.588Z,49.34
2022-07-26T17:44:02.851Z,49.21
2022-07-26T17:46:32.488Z,49.68
2022-07-26T17:49:00.825Z,50.11
2022-07-26T17:51:28.676Z,50.24
2022-07-26T17:53:56.475Z,50.54
2022-07-26T17:56:24.229Z,50.73
2022-07-26T17:58:53.401Z,50.89
2022-07-26T18:01:21.302Z,50.49
2022-07-26T18:03:49.784Z,50.99
2022-07-26T18:06:18.559Z,50.34
2022-07-26T18:08:46.467Z,51.83
2022-07-26T18:11:14.651Z,50.52
2022-07-26T18:13:42.403Z,51.46
2022-07-26T18:16:12.896Z,50.47
2022-07-26T18:18:40.983Z,51.25
2022-07-26T18:21:09.029Z,51.83
2022-07-26T18:23:36.970Z,51.18
2022-07-26T18:26:05.181Z,51.57
2022-07-26T18:28:33.209Z,51.31
2022-07-26T18:31:01.100Z,51.37
2022-07-26T18:33:31.729Z,52.93
2022-07-26T18:36:00.999Z,54.08
2022-07-26T18:38:29.038Z,53.73
2022-07-26T18:40:57.303Z,54.06
2022-07-26T18:43:25.091Z,54.20
2022-07-26T18:45:53.364Z,54.89
2022-07-26T18:48:21.349Z,54.92
2022-07-26T18:50:53.486Z,55.46
2022-07-26T18:53:21.539Z,55.51
2022-07-26T18:55:49.670Z,56.28
2022-07-26T18:58:18.336Z,57.14
2022-07-26T19:00:49.872Z,56.57
2022-07-26T19:03:19.639Z,56.89
2022-07-26T19:05:47.521Z,57.31
2022-07-26T19:08:16.943Z,57.80
2022-07-26T19:10:45.020Z,57.25
2022-07-26T19:13:12.994Z,58.49
2022-07-26T19:15:41.113Z,58.90
2022-07-26T19:18:11.108Z,58.94
2022-07-26T19:20:39.007Z,58.60
2022-07-26T19:23:06.920Z,58.26
2022-07-26T19:25:36.034Z,58.30
2022-07-26T19:28:05.972Z,58.33
2022-07-26T19:30:36.802Z,58.83
2022-07-26T19:33:04.953Z,59.52
2022-07-26T19:35:32.910Z,60.07
2022-07-26T19:38:00.696Z,60.81
2022-07-26T19:40:30.287Z,61.20
2022-07-26T19:42:59.405Z,61.70
2022-07-26T19:45:27.219Z,61.84
2022-07-26T19:50:23.826Z,61.99
2022-07-26T19:52:51.645Z,63.28
2022-07-26T19:55:19.561Z,64.42
2022-07-26T19:57:47.327Z,64.96
2022-07-26T20:00:17.957Z,64.18
2022-07-26T20:02:46.214Z,64.42
2022-07-26T20:05:14.171Z,64.16
2022-07-26T20:07:43.310Z,64.57
2022-07-26T20:10:11.591Z,64.61
2022-07-26T20:12:39.548Z,64.96
2022-07-26T20:15:08.260Z,65.38
2022-07-26T20:17:39.741Z,65.22
2022-07-26T20:20:08.917Z,65.98
2022-07-26T20:22:37.045Z,66.48
2022-07-26T20:25:05.956Z,66.98
2022-07-26T20:27:33.883Z,66.85
2022-07-26T20:30:03.408Z,66.89
2022-07-26T20:32:31.201Z,67.02
2022-07-26T20:35:00.354Z,67.53
2022-07-26T20:37:28.127Z,67.91
2022-07-26T20:39:55.930Z,67.70
2022-07-26T20:42:24.455Z,67.83
2022-07-26T20:44:53.571Z,68.01
2022-07-26T20:47:22.410Z,68.05
2022-07-26T20:49:50.252Z,67.80
2022-07-26T20:52:19.542Z,67.37
2022-07-26T20:54:47.346Z,66.94
2022-07-26T20:57:15.142Z,67.19
2022-07-26T20:59:42.980Z,67.12
2022-07-26T21:02:10.942Z,66.97
2022-07-26T21:04:38.820Z,67.23
2022-07-26T21:07:06.628Z,67.30
2022-07-26T21:09:35.781Z,67.32
2022-07-26T21:12:03.831Z,67.42
2022-07-26T21:14:31.703Z,67.27
2022-07-26T21:16:59.665Z,67.81
2022-07-26T21:19:27.587Z,67.50
2022-07-26T21:21:56.953Z,67.27
2022-07-26T21:24:24.890Z,67.46
2022-07-26T21:26:55.225Z,67.63
2022-07-26T21:29:23.562Z,67.63
2022-07-26T21:31:51.423Z,68.46
2022-07-26T21:34:19.593Z,68.00
2022-07-26T21:36:47.472Z,67.94
2022-07-26T21:39:15.308Z,67.59
2022-07-26T21:41:43.129Z,67.50
2022-07-26T21:44:12.503Z,67.42
2022-07-26T21:46:40.407Z,67.80
2022-07-26T21:49:08.571Z,68.49
2022-07-26T21:51:36.665Z,68.11
2022-07-26T21:54:04.755Z,67.81
2022-07-26T21:56:32.505Z,69.32
2022-07-26T21:59:01.028Z,69.59
2022-07-26T22:01:30.209Z,69.58
2022-07-26T22:03:58.055Z,69.49
2022-07-26T22:06:26.000Z,69.92
2022-07-26T22:08:53.800Z,70.60
2022-07-26T22:11:21.810Z,70.44
2022-07-26T22:13:49.619Z,70.04
2022-07-26T22:16:17.532Z,70.76
2022-07-26T22:18:46.768Z,71.13
2022-07-26T22:21:14.896Z,70.45
2022-07-26T22:23:42.777Z,70.64
2022-07-26T22:26:10.889Z,71.25
2022-07-26T22:28:39.024Z,70.85
2022-07-26T22:31:06.791Z,70.61
2022-07-26T22:33:34.588Z,70.47
2022-07-26T22:36:03.782Z,71.30
2022-07-26T22:38:31.544Z,71.22
2022-07-26T22:40:59.863Z,70.96
2022-07-26T22:43:27.715Z,71.20
2022-07-26T22:45:55.601Z,71.67
2022-07-26T22:48:24.212Z,72.17
2022-07-26T22:50:52.175Z,72.45
2022-07-26T22:53:21.401Z,73.29
2022-07-26T22:55:49.244Z,73.08
2022-07-26T22:58:16.988Z,72.98
2022-07-26T23:00:45.053Z,73.29
2022-07-26T23:03:20.018Z,73.56
2022-07-26T23:05:50.031Z,74.19
2022-07-26T23:11:07.771Z,74.91
2022-07-26T23:13:35.691Z,74.66
2022-07-26T23:16:03.616Z,75.45
2022-07-26T23:18:32.397Z,75.42
2022-07-26T23:21:00.297Z,75.47
2022-07-26T23:23:29.762Z,75.56
2022-07-26T23:25:59.512Z,76.28
2022-07-26T23:28:37.666Z,76.21
2022-07-26T23:31:10.804Z,76.09
2022-07-26T23:33:51.539Z,77.17
2022-07-26T23:36:26.343Z,77.47
2022-07-26T23:38:54.769Z,78.63
2022-07-26T23:41:22.893Z,79.22
2022-07-26T23:43:52.441Z,78.95
2022-07-26T23:46:20.270Z,78.77
2022-07-26T23:48:48.280Z,78.72
2022-07-26T23:51:16.181Z,78.72
2022-07-26T23:53:44.047Z,78.49
2022-07-26T23:56:11.986Z,78.75
2022-07-26T23:58:39.878Z,79.10
